Aleknagik, Alaska
Current Conditions -  °F | °C
As of 1:16 AM on Sunday 26 Oct 2014 (Local Time) from PADL Reporting Station
Overcast Overcast  
Wind Chill: 32°   Ceiling: 1500
Heat Index: 32°   Visibility: 10mi
Dew Point: 30°   Wind: 0mph
Humidity: 93%   Direction: NA
Pressure: 29.87"   Gusts: NA
Location:  59.27°N, 158.62°W
Report Text: PADL 260916Z 00000KT 10SM BKN015 BKN022 OVC043 00/M01 A2987 RMK AO1
Loading
Personal Weather Stations






























Interactive Weather Map
Tropical Storm Tracking
New forecast layout! Learn more

10-Day Weather Forecast

Advertisements
Track Severe Weather on mobile